Time;durP1;ratioP1;P1;durP2;ratioP2;P2;SDS_P1;SDS_P2;PMS_P1;PMS_P2;Temp;Humidity;BMP_temperature;BMP_pressure;BME280_temperature;BME280_humidity;BME280_pressure;Samples;Min_cycle;Max_cycle;Signal;HPM_P1;HPM_P2
2023/11/08 00:00:37;;;;;;;2.87;2.57;;;7.90;99.90;;;;;;5036333;28;20622;-89
2023/11/08 00:03:02;;;;;;;2.53;2.20;;;7.90;99.90;;;;;;5033653;28;20601;-89
2023/11/08 00:05:29;;;;;;;1.60;1.50;;;7.60;99.90;;;;;;5031235;28;20268;-89
2023/11/08 00:07:54;;;;;;;6.13;2.10;;;7.80;99.90;;;;;;5033218;28;20276;-89
2023/11/08 00:10:20;;;;;;;4.03;2.20;;;7.70;99.90;;;;;;5033923;28;20212;-89
2023/11/08 00:12:46;;;;;;;2.87;2.27;;;7.70;99.90;;;;;;5032757;28;20434;-89
2023/11/08 00:15:11;;;;;;;3.60;2.30;;;7.50;99.90;;;;;;5034379;28;20315;-90
2023/11/08 00:17:37;;;;;;;5.27;2.10;;;7.30;99.90;;;;;;5029395;28;20260;-90
2023/11/08 00:20:05;;;;;;;2.80;2.13;;;9.50;99.90;;;;;;5033771;28;20371;-90
2023/11/08 00:22:31;;;;;;;4.85;2.38;;;7.30;99.90;;;;;;5033930;28;20517;-91
2023/11/08 00:24:56;;;;;;;2.33;2.10;;;7.40;99.90;;;;;;5033063;28;20323;-90
2023/11/08 00:27:22;;;;;;;6.83;2.40;;;7.00;99.90;;;;;;5033895;28;20178;-90
2023/11/08 00:29:48;;;;;;;3.03;2.23;;;7.40;99.90;;;;;;5034035;28;20185;-89
2023/11/08 00:32:16;;;;;;;4.22;2.13;;;7.10;99.90;;;;;;5032363;28;20710;-89
2023/11/08 00:34:41;;;;;;;2.30;1.65;;;7.50;99.90;;;;;;5017098;28;20248;-90
2023/11/08 00:37:09;;;;;;;5.30;2.60;;;7.30;99.90;;;;;;5030915;28;20194;-90
2023/11/08 00:39:34;;;;;;;5.20;2.33;;;7.60;99.90;;;;;;5030983;28;20189;-90
2023/11/08 00:42:00;;;;;;;3.47;2.03;;;7.70;99.90;;;;;;5033614;28;20213;-90
2023/11/08 00:44:25;;;;;;;4.50;2.20;;;7.60;99.90;;;;;;5028629;28;20211;-89
2023/11/08 00:46:53;;;;;;;2.40;1.90;;;7.30;99.90;;;;;;5032332;28;20243;-89
2023/11/08 00:49:19;;;;;;;3.50;1.88;;;6.90;99.90;;;;;;5032611;28;20366;-89
2023/11/08 00:51:45;;;;;;;2.50;1.80;;;7.30;99.90;;;;;;5035249;28;20205;-88
2023/11/08 00:54:11;;;;;;;3.10;2.10;;;7.10;99.90;;;;;;5040579;28;20250;-89
2023/11/08 00:56:37;;;;;;;3.05;1.98;;;7.30;99.90;;;;;;5033078;28;20227;-89
2023/11/08 00:59:03;;;;;;;2.57;2.37;;;7.30;99.90;;;;;;5036494;28;20579;-89
2023/11/08 01:01:30;;;;;;;4.57;2.30;;;7.20;99.90;;;;;;5037058;28;20235;-89
2023/11/08 01:03:56;;;;;;;2.60;2.40;;;7.40;99.90;;;;;;5035800;28;20434;-89
2023/11/08 01:06:25;;;;;;;4.00;1.90;;;7.30;99.90;;;;;;5035052;28;20185;-89
2023/11/08 01:08:50;;;;;;;2.13;1.48;;;7.40;99.90;;;;;;5040123;28;20402;-89
2023/11/08 01:11:17;;;;;;;3.80;1.80;;;8.00;99.90;;;;;;5056502;28;20176;-90
2023/11/08 01:13:42;;;;;;;2.83;1.55;;;8.00;99.90;;;;;;5044180;28;21049;-89
2023/11/08 01:16:08;;;;;;;3.47;1.80;;;7.60;99.90;;;;;;5038535;28;20178;-90
2023/11/08 01:18:34;;;;;;;2.20;1.43;;;7.80;99.90;;;;;;5032570;28;20261;-89
2023/11/08 01:21:00;;;;;;;2.03;1.40;;;7.80;99.90;;;;;;5035355;28;20418;-89
2023/11/08 01:23:29;;;;;;;1.75;1.40;;;7.90;99.90;;;;;;5019647;28;20228;-91
2023/11/08 01:25:55;;;;;;;2.70;1.15;;;7.80;99.90;;;;;;5031468;28;20194;-89
2023/11/08 01:28:21;;;;;;;1.70;1.53;;;8.10;99.90;;;;;;5033606;28;20196;-89
2023/11/08 01:30:47;;;;;;;1.90;1.30;;;8.20;99.90;;;;;;5044517;28;20210;-89
2023/11/08 01:33:13;;;;;;;2.05;1.63;;;8.10;99.90;;;;;;5035838;28;20205;-90
2023/11/08 01:35:38;;;;;;;2.67;1.40;;;8.00;99.90;;;;;;5037711;28;20186;-91
2023/11/08 01:38:04;;;;;;;2.83;1.50;;;8.20;99.90;;;;;;5032140;28;20220;-89
2023/11/08 01:40:30;;;;;;;2.33;1.60;;;8.00;99.90;;;;;;5030246;28;20190;-89
2023/11/08 01:42:55;;;;;;;2.07;1.50;;;8.00;99.90;;;;;;5034713;28;20226;-89
2023/11/08 01:45:21;;;;;;;1.80;1.30;;;7.70;99.90;;;;;;5035748;28;20249;-89
2023/11/08 01:47:48;;;;;;;1.63;1.47;;;8.10;99.90;;;;;;5036199;28;20217;-89
2023/11/08 01:50:15;;;;;;;1.38;1.25;;;8.30;99.90;;;;;;5034187;28;20180;-91
2023/11/08 01:52:41;;;;;;;1.45;1.30;;;8.00;99.90;;;;;;5029941;28;20227;-90
2023/11/08 01:55:07;;;;;;;3.30;1.47;;;8.30;99.90;;;;;;5036255;28;20185;-89
2023/11/08 01:57:33;;;;;;;1.83;1.33;;;7.80;99.90;;;;;;5037535;28;20181;-88
2023/11/08 01:59:59;;;;;;;2.05;1.42;;;8.10;99.90;;;;;;5038073;28;20209;-91
2023/11/08 02:02:25;;;;;;;2.95;1.40;;;;;;;;;;5034268;28;20233;-91
2023/11/08 02:04:53;;;;;;;2.45;1.38;;;8.00;99.90;;;;;;5038971;28;20181;-91
2023/11/08 02:07:19;;;;;;;2.00;1.15;;;8.30;99.90;;;;;;5058978;28;20245;-91
2023/11/08 02:09:45;;;;;;;2.60;1.20;;;7.90;99.90;;;;;;5049738;28;20197;-91
2023/11/08 02:12:12;;;;;;;2.00;1.50;;;7.80;99.90;;;;;;5035684;28;20178;-91
2023/11/08 02:15:00;;;;;;;2.05;1.33;;;8.40;99.90;;;;;;5029625;28;20240;-89
2023/11/08 02:17:25;;;;;;;3.78;1.27;;;8.00;99.90;;;;;;5032140;28;20729;-91
2023/11/08 02:19:51;;;;;;;1.87;1.20;;;8.30;99.90;;;;;;5028707;28;20189;-89
2023/11/08 02:22:17;;;;;;;1.83;1.03;;;8.00;99.90;;;;;;5034076;28;20206;-91
2023/11/08 02:24:44;;;;;;;4.10;1.17;;;7.90;99.90;;;;;;5031660;28;20236;-91
2023/11/08 02:27:09;;;;;;;2.38;1.50;;;8.20;99.90;;;;;;5035974;28;20236;-90
2023/11/08 02:29:35;;;;;;;2.30;1.33;;;8.00;99.90;;;;;;5030813;28;20209;-90
2023/11/08 02:32:00;;;;;;;1.50;1.20;;;8.10;99.90;;;;;;5032339;28;20214;-91
2023/11/08 02:34:26;;;;;;;1.37;1.13;;;8.20;99.90;;;;;;5031336;28;20209;-91
2023/11/08 02:36:53;;;;;;;3.80;1.40;;;8.00;99.90;;;;;;5030884;28;20189;-91
2023/11/08 02:39:18;;;;;;;2.20;1.33;;;8.00;99.90;;;;;;5031851;28;20235;-88
2023/11/08 02:41:44;;;;;;;3.40;1.30;;;8.40;99.90;;;;;;5031733;28;21012;-89
2023/11/08 02:44:09;;;;;;;2.70;1.60;;;8.00;99.90;;;;;;5033368;28;20344;-90
2023/11/08 02:46:35;;;;;;;3.03;1.33;;;7.70;99.90;;;;;;5028358;28;20269;-90
2023/11/08 02:49:01;;;;;;;1.50;1.00;;;8.00;99.90;;;;;;5029145;28;20547;-90
2023/11/08 02:51:29;;;;;;;1.00;0.90;;;7.90;99.90;;;;;;5029301;28;20644;-91
2023/11/08 02:53:56;;;;;;;3.15;1.10;;;7.70;99.90;;;;;;5034394;28;20220;-90
2023/11/08 02:56:24;;;;;;;2.75;1.30;;;7.80;99.90;;;;;;5028205;28;20669;-90
2023/11/08 02:58:53;;;;;;;2.92;1.10;;;8.30;99.90;;;;;;5026609;28;20221;-90
2023/11/08 03:01:21;;;;;;;1.98;1.45;;;7.90;99.90;;;;;;5030648;28;20590;-90
2023/11/08 03:03:47;;;;;;;1.95;1.60;;;7.70;99.90;;;;;;5032114;28;20690;-91
2023/11/08 03:06:13;;;;;;;1.67;1.38;;;7.60;99.90;;;;;;5034695;28;20182;-90
2023/11/08 03:08:39;;;;;;;3.70;1.77;;;8.20;99.90;;;;;;5032073;28;21110;-90
2023/11/08 03:11:04;;;;;;;1.73;1.50;;;8.10;99.90;;;;;;5034277;28;20628;-90
2023/11/08 03:13:32;;;;;;;1.77;1.67;;;7.60;99.90;;;;;;5033194;28;20233;-90
2023/11/08 03:15:58;;;;;;;2.20;2.00;;;7.50;99.90;;;;;;5034179;28;20268;-90
2023/11/08 03:18:24;;;;;;;3.83;1.42;;;7.70;99.90;;;;;;5039918;28;20392;-90
2023/11/08 03:20:50;;;;;;;1.65;1.42;;;7.30;99.90;;;;;;5036943;28;20181;-90
2023/11/08 03:23:16;;;;;;;2.13;1.47;;;9.30;99.90;;;;;;5031031;28;20263;-90
2023/11/08 03:25:41;;;;;;;1.40;1.30;;;7.50;99.90;;;;;;5035822;28;20189;-89
2023/11/08 03:28:07;;;;;;;2.63;1.57;;;7.80;99.90;;;;;;5032493;28;20192;-89
2023/11/08 03:30:32;;;;;;;2.97;1.87;;;7.30;99.90;;;;;;5036457;28;20190;-89
2023/11/08 03:32:58;;;;;;;1.77;1.63;;;7.30;99.90;;;;;;5033003;28;20712;-89
2023/11/08 03:35:24;;;;;;;1.70;1.60;;;7.40;99.90;;;;;;5038355;28;20236;-90
2023/11/08 03:37:49;;;;;;;2.70;1.63;;;7.20;99.90;;;;;;5037673;28;20189;-90
2023/11/08 03:40:15;;;;;;;3.83;1.50;;;7.10;99.90;;;;;;5036683;28;20188;-91
2023/11/08 03:42:41;;;;;;;1.70;1.53;;;7.50;99.90;;;;;;5032538;28;20209;-90
2023/11/08 03:45:08;;;;;;;1.77;1.63;;;7.20;99.90;;;;;;5034007;28;20281;-90
2023/11/08 03:47:36;;;;;;;1.83;1.60;;;7.50;99.90;;;;;;5035000;28;20272;-90
2023/11/08 03:50:02;;;;;;;2.17;1.65;;;7.60;99.90;;;;;;5043347;28;20177;-90
2023/11/08 03:52:27;;;;;;;2.95;1.75;;;7.30;99.90;;;;;;5052267;28;20181;-91
2023/11/08 03:54:53;;;;;;;1.50;1.40;;;7.50;99.90;;;;;;5046976;28;20176;-89
2023/11/08 03:57:19;;;;;;;2.97;1.60;;;7.90;99.90;;;;;;5049230;28;20189;-91
2023/11/08 03:59:46;;;;;;;1.77;1.50;;;7.80;99.90;;;;;;5044976;28;20193;-90
2023/11/08 04:02:11;;;;;;;1.52;1.40;;;7.60;99.90;;;;;;5046019;28;20239;-90
2023/11/08 04:04:37;;;;;;;1.30;1.20;;;7.90;99.90;;;;;;5033719;28;20255;-91
2023/11/08 04:07:02;;;;;;;3.37;1.40;;;7.80;99.90;;;;;;5042728;28;20664;-90
2023/11/08 04:09:28;;;;;;;2.13;1.50;;;8.10;99.90;;;;;;5033004;28;20192;-91
2023/11/08 04:11:54;;;;;;;2.83;1.60;;;7.90;99.90;;;;;;5031726;28;20189;-91
2023/11/08 04:14:19;;;;;;;1.80;1.20;;;8.30;99.90;;;;;;5033561;28;20566;-90
2023/11/08 04:16:45;;;;;;;1.43;1.33;;;7.50;99.90;;;;;;5032183;28;20192;-90
2023/11/08 04:19:10;;;;;;;2.20;1.50;;;8.20;99.90;;;;;;5032383;28;20185;-90
2023/11/08 04:21:36;;;;;;;1.43;1.33;;;8.30;99.90;;;;;;5033843;28;20250;-89
2023/11/08 04:24:03;;;;;;;2.20;1.40;;;8.50;99.90;;;;;;5033069;28;20209;-90
2023/11/08 04:26:30;;;;;;;2.45;1.70;;;8.50;99.90;;;;;;5033641;28;20178;-88
2023/11/08 04:28:58;;;;;;;3.70;1.65;;;8.20;99.90;;;;;;5036759;28;20209;-91
2023/11/08 04:31:23;;;;;;;3.70;1.75;;;8.80;99.90;;;;;;5034728;28;20178;-92
2023/11/08 04:33:50;;;;;;;2.03;1.40;;;8.50;99.90;;;;;;5031610;28;20701;-90
2023/11/08 04:36:17;;;;;;;4.10;1.30;;;8.50;99.90;;;;;;5049304;28;20422;-91
2023/11/08 04:38:45;;;;;;;4.65;1.73;;;9.00;99.90;;;;;;5055642;28;20220;-89
2023/11/08 04:41:18;;;;;;;3.08;1.75;;;8.40;99.90;;;;;;5057600;28;20186;-91
2023/11/08 04:43:44;;;;;;;2.15;1.55;;;8.50;99.90;;;;;;5052747;22;20293;-92
2023/11/08 04:46:11;;;;;;;3.77;1.47;;;8.60;99.90;;;;;;5013926;28;20206;-91
2023/11/08 04:48:43;;;;;;;2.25;1.65;;;8.60;99.90;;;;;;4998864;28;20268;-92
2023/11/08 04:51:09;;;;;;;2.30;1.35;;;9.20;99.90;;;;;;4993440;28;20275;-92
2023/11/08 04:53:35;;;;;;;2.73;1.77;;;8.20;99.90;;;;;;4995143;28;20227;-92
2023/11/08 04:56:00;;;;;;;1.70;1.50;;;8.40;99.90;;;;;;4999781;28;21021;-92
2023/11/08 04:58:27;;;;;;;2.30;1.10;;;;;;;;;;4998788;28;20183;-93
2023/11/08 05:00:53;;;;;;;2.22;1.35;;;8.80;99.90;;;;;;5001111;28;20273;-93
2023/11/08 05:03:22;;;;;;;2.27;1.90;;;8.70;99.90;;;;;;5001398;28;20377;-90
2023/11/08 05:05:51;;;;;;;2.67;1.23;;;11.00;99.90;;;;;;4995095;28;20218;-91
2023/11/08 05:08:46;;;;;;;3.25;1.40;;;11.30;99.90;;;;;;4993249;28;20187;-89
2023/11/08 05:25:51;;;;;;;;;;;;;;;;;;;;;
2023/11/08 05:29:08;;;;;;;2.95;2.60;;;8.80;99.90;;;;;;4969462;28;20713;-90
2023/11/08 05:39:15;;;;;;;;;;;;;;;;;;;;;
2023/11/08 05:49:05;;;;;;;;;;;;;;;;;;;;;
2023/11/08 05:51:34;;;;;;;3.63;2.08;;;9.40;99.90;;;;;;4980636;28;20225;-90
2023/11/08 05:58:22;;;;;;;;;;;;;;;;;;;;;
2023/11/08 06:04:28;;;;;;;;;;;;;;;;;;;;;
2023/11/08 06:07:23;;;;;;;;;;;;;;;;;;;;;
2023/11/08 06:10:05;;;;;;;;;;;;;;;;;;;;;
2023/11/08 06:12:48;;;;;;;3.63;3.00;;;7.70;99.90;;;;;;4914645;29;20203;-90
2023/11/08 06:15:40;;;;;;;3.50;2.53;;;7.50;99.90;;;;;;4982423;28;20208;-90
2023/11/08 06:18:34;;;;;;;5.25;3.10;;;8.60;99.90;;;;;;5022124;28;20198;-91
2023/11/08 06:21:32;;;;;;;3.90;2.80;;;9.20;99.90;;;;;;5018453;28;20184;-90
2023/11/08 06:24:00;;;;;;;3.75;3.03;;;7.40;99.90;;;;;;5044994;28;20202;-91
2023/11/08 06:27:01;;;;;;;;;;;;;;;;;;;;;
2023/11/08 06:29:39;;;;;;;;;;;;;;;;;;;;;
2023/11/08 06:32:29;;;;;;;;;;;;;;;;;;;;;
2023/11/08 06:34:52;;;;;;;3.30;2.63;;;7.70;99.90;;;;;;5012371;28;20210;-89
2023/11/08 06:37:18;;;;;;;4.23;2.90;;;;;;;;;;5011071;28;20217;-93
2023/11/08 06:39:47;;;;;;;3.57;2.30;;;7.20;99.90;;;;;;5025344;28;20251;-91
2023/11/08 06:42:13;;;;;;;8.27;2.55;;;8.20;99.90;;;;;;5012753;28;20465;-91
2023/11/08 06:44:39;;;;;;;4.97;3.57;;;;;;;;;;5014776;28;20312;-89
2023/11/08 06:47:04;;;;;;;5.65;2.20;;;7.20;99.90;;;;;;5017613;28;20186;-91
2023/11/08 06:49:30;;;;;;;5.80;2.73;;;6.40;99.90;;;;;;5021448;28;20555;-90
2023/11/08 06:51:57;;;;;;;11.50;2.87;;;9.20;99.90;;;;;;5022796;28;20200;-89
2023/11/08 06:54:22;;;;;;;3.13;2.75;;;7.10;99.90;;;;;;5015105;28;20457;-90
2023/11/08 07:00:21;;;;;;;6.60;2.67;;;8.00;99.90;;;;;;5034426;28;20185;-90
2023/11/08 07:02:55;;;;;;;3.40;2.50;;;7.20;99.90;;;;;;5027344;23;20206;-91
2023/11/08 07:05:21;;;;;;;3.42;2.88;;;;;;;;;;5037712;28;20220;-91
2023/11/08 07:07:49;;;;;;;5.90;3.17;;;7.40;99.90;;;;;;5039670;28;20170;-91
2023/11/08 07:10:15;;;;;;;4.10;2.25;;;7.60;99.90;;;;;;5039036;28;20211;-92
2023/11/08 07:12:42;;;;;;;4.88;3.20;;;7.50;99.90;;;;;;5042834;28;20186;-91
2023/11/08 07:18:33;;;;;;;4.95;3.03;;;7.60;99.90;;;;;;5058196;28;20181;-91
2023/11/08 07:20:59;;;;;;;5.10;3.58;;;6.40;99.90;;;;;;5061717;28;20189;-91
2023/11/08 07:23:27;;;;;;;6.30;3.43;;;8.30;99.90;;;;;;5059275;28;20240;-91
2023/11/08 07:26:00;;;;;;;4.78;3.28;;;7.20;99.90;;;;;;5041297;28;20174;-92
2023/11/08 07:29:41;;;;;;;;;;;;;;;;;;;;;
2023/11/08 07:32:08;;;;;;;5.85;3.72;;;7.70;99.90;;;;;;5050689;28;20185;-91
2023/11/08 07:34:34;;;;;;;5.32;3.67;;;7.50;99.90;;;;;;5020585;28;20574;-92
2023/11/08 07:37:00;;;;;;;2.33;2.13;;;9.60;99.90;;;;;;5037168;28;20276;-91
2023/11/08 07:39:26;;;;;;;1.98;1.60;;;;;;;;;;5033368;28;20467;-91
2023/11/08 07:45:00;;;;;;;3.38;2.50;;;9.90;99.90;;;;;;5043414;28;20213;-91
2023/11/08 07:47:46;;;;;;;8.55;1.92;;;8.40;99.90;;;;;;5036368;28;20685;-90
2023/11/08 07:50:12;;;;;;;5.00;2.00;;;8.40;99.90;;;;;;4971428;28;20595;-92
2023/11/08 07:52:37;;;;;;;3.40;2.10;;;8.50;99.90;;;;;;5025727;28;20193;-89
2023/11/08 07:55:05;;;;;;;2.20;1.80;;;8.00;99.90;;;;;;5040511;28;20190;-89
2023/11/08 08:00:35;;;;;;;1.95;1.70;;;8.80;99.90;;;;;;4994991;28;20636;-91
2023/11/08 08:03:01;;;;;;;1.42;1.30;;;8.80;99.90;;;;;;5040990;28;20251;-92
2023/11/08 08:05:27;;;;;;;2.30;1.73;;;;;;;;;;5039604;28;20178;-91
2023/11/08 08:07:53;;;;;;;2.63;1.85;;;8.90;99.90;;;;;;5038497;28;20186;-90
2023/11/08 08:10:21;;;;;;;2.88;2.13;;;9.00;99.90;;;;;;5044110;28;20260;-91
2023/11/08 08:12:48;;;;;;;5.00;2.72;;;10.30;99.90;;;;;;5039594;28;20206;-91
2023/11/08 08:15:13;;;;;;;2.28;2.08;;;8.60;99.90;;;;;;5039007;28;20183;-90
2023/11/08 08:17:39;;;;;;;2.43;1.83;;;10.50;99.90;;;;;;5038151;28;20271;-90
2023/11/08 08:20:05;;;;;;;4.43;2.40;;;10.50;99.90;;;;;;5040850;28;20190;-92
2023/11/08 08:22:31;;;;;;;3.50;2.30;;;9.50;99.90;;;;;;5041248;28;20305;-92
2023/11/08 08:24:59;;;;;;;2.45;1.65;;;9.50;99.90;;;;;;5044671;28;20236;-91
2023/11/08 08:27:25;;;;;;;2.55;1.52;;;10.00;99.90;;;;;;5043234;28;20179;-91
2023/11/08 08:29:51;;;;;;;1.67;1.58;;;9.70;99.90;;;;;;5039689;28;20198;-92
2023/11/08 08:32:17;;;;;;;4.78;1.58;;;9.80;99.90;;;;;;5023609;28;20199;-90
2023/11/08 08:34:44;;;;;;;2.73;1.60;;;9.70;99.90;;;;;;5037055;28;20212;-92
2023/11/08 08:37:10;;;;;;;1.65;1.50;;;9.50;99.90;;;;;;5036868;28;20957;-91
2023/11/08 08:39:37;;;;;;;3.13;1.67;;;;;;;;;;5041758;28;20190;-91
2023/11/08 08:42:34;;;;;;;3.75;1.67;;;10.20;99.90;;;;;;5044136;28;20187;-92
2023/11/08 08:45:03;;;;;;;3.03;1.50;;;10.50;99.90;;;;;;5042137;28;20210;-94
2023/11/08 08:47:37;;;;;;;1.85;1.45;;;12.30;99.90;;;;;;5334541;23;20227;-91
2023/11/08 08:50:05;;;;;;;2.15;1.77;;;10.60;99.90;;;;;;5056295;28;20188;-92
2023/11/08 09:03:20;;;;;;;1.42;1.00;;;11.80;99.90;;;;;;5252333;22;20263;-92
2023/11/08 09:05:46;;;;;;;1.65;0.75;;;11.00;99.90;;;;;;5024178;28;20178;-92
2023/11/08 09:08:12;;;;;;;2.63;1.17;;;;;;;;;;5024106;28;20189;-93
2023/11/08 09:10:37;;;;;;;2.63;1.40;;;11.80;99.90;;;;;;5017777;28;20186;-90
2023/11/08 09:13:03;;;;;;;1.10;0.90;;;11.80;99.90;;;;;;5018047;28;20237;-92
2023/11/08 09:15:31;;;;;;;1.57;0.97;;;12.60;99.90;;;;;;5024751;28;20193;-92
2023/11/08 09:21:23;;;;;;;0.90;0.80;;;12.40;99.80;;;;;;5036750;28;20268;-91
2023/11/08 09:24:09;;;;;;;2.72;0.95;;;12.20;99.90;;;;;;5119213;22;20232;-91
2023/11/08 09:26:41;;;;;;;2.08;0.90;;;14.10;99.90;;;;;;5039568;28;20725;-91
2023/11/08 09:29:07;;;;;;;1.50;1.00;;;12.20;99.90;;;;;;5040695;28;20212;-92
2023/11/08 09:31:34;;;;;;;2.13;0.80;;;14.30;99.90;;;;;;5040090;28;20672;-91
2023/11/08 09:34:00;;;;;;;1.35;1.05;;;11.90;99.90;;;;;;5037317;28;20209;-91
2023/11/08 09:36:27;;;;;;;1.33;0.88;;;12.90;99.90;;;;;;5034924;28;20209;-88
2023/11/08 09:39:10;;;;;;;;;;;;;;;;;;;;;
2023/11/08 09:42:07;;;;;;;2.05;1.02;;;12.10;98.90;;;;;;5050750;28;20193;-89
2023/11/08 09:44:33;;;;;;;2.08;1.30;;;12.70;99.40;;;;;;5031788;28;20205;-90
2023/11/08 09:47:00;;;;;;;2.00;0.80;;;11.90;98.30;;;;;;5034762;28;20190;-91
2023/11/08 09:49:25;;;;;;;1.55;0.82;;;12.80;97.90;;;;;;5039172;28;20216;-91
2023/11/08 09:51:52;;;;;;;1.20;0.87;;;12.70;97.90;;;;;;5036055;28;20193;-92
2023/11/08 09:54:18;;;;;;;1.52;1.15;;;12.90;98.00;;;;;;5036714;28;20205;-92
2023/11/08 09:56:47;;;;;;;4.33;0.90;;;13.70;98.10;;;;;;5040009;28;20185;-92
2023/11/08 09:59:16;;;;;;;1.15;1.05;;;12.70;97.40;;;;;;5034997;28;20264;-92
2023/11/08 10:01:45;;;;;;;1.00;0.90;;;12.80;97.10;;;;;;5041712;28;20185;-92
2023/11/08 10:04:15;;;;;;;1.10;0.90;;;12.70;96.90;;;;;;5051522;28;20223;-92
2023/11/08 10:06:44;;;;;;;3.47;1.27;;;12.60;97.30;;;;;;5059323;28;20173;-92
2023/11/08 10:09:11;;;;;;;2.97;1.30;;;12.90;97.20;;;;;;5055796;28;20212;-90
2023/11/08 10:11:38;;;;;;;1.40;0.98;;;13.10;97.50;;;;;;5038029;28;20200;-90
2023/11/08 10:14:04;;;;;;;1.80;1.10;;;12.60;96.80;;;;;;5031944;28;20204;-91
2023/11/08 10:16:46;;;;;;;3.73;1.70;;;12.50;96.80;;;;;;5037579;28;20680;-90
2023/11/08 10:19:12;;;;;;;1.80;1.33;;;12.40;96.90;;;;;;5036023;28;20202;-92
2023/11/08 10:21:38;;;;;;;2.50;1.70;;;12.10;97.20;;;;;;5038252;28;20189;-90
2023/11/08 10:24:11;;;;;;;1.00;0.90;;;12.60;97.60;;;;;;5033101;28;20472;-90
2023/11/08 10:26:38;;;;;;;1.45;0.98;;;12.10;97.70;;;;;;5033017;28;20429;-91
2023/11/08 10:29:07;;;;;;;1.35;0.70;;;12.20;97.60;;;;;;5031334;28;20240;-91
2023/11/08 10:31:35;;;;;;;4.47;2.58;;;12.30;97.30;;;;;;5036170;28;20197;-91
2023/11/08 10:34:08;;;;;;;2.35;1.58;;;12.40;97.30;;;;;;5038673;28;20335;-90
2023/11/08 10:36:35;;;;;;;2.25;1.08;;;13.60;97.70;;;;;;5036246;28;20189;-91
2023/11/08 10:39:01;;;;;;;2.70;1.13;;;12.70;97.00;;;;;;5037588;28;20216;-91
2023/11/08 10:41:30;;;;;;;1.85;0.77;;;12.30;97.70;;;;;;5032625;28;20213;-91
2023/11/08 10:44:13;;;;;;;1.45;0.90;;;12.50;97.70;;;;;;5031794;28;20217;-91
2023/11/08 10:46:41;;;;;;;2.45;1.00;;;12.50;97.50;;;;;;5039104;28;20182;-91
2023/11/08 10:49:09;;;;;;;1.45;1.10;;;12.70;97.50;;;;;;5038900;28;20192;-90
2023/11/08 10:51:42;;;;;;;1.50;1.15;;;12.70;97.50;;;;;;5039004;28;20182;-92
2023/11/08 10:54:08;;;;;;;1.27;1.00;;;13.00;97.50;;;;;;5035248;28;20580;-90
2023/11/08 10:56:37;;;;;;;5.97;0.98;;;13.70;98.00;;;;;;5036558;28;20185;-92
2023/11/08 10:59:05;;;;;;;1.38;0.90;;;13.60;96.90;;;;;;5053319;28;20205;-91
2023/11/08 11:01:32;;;;;;;2.45;1.30;;;13.00;97.00;;;;;;5057999;28;20169;-91
2023/11/08 11:04:11;;;;;;;1.23;0.90;;;13.30;97.30;;;;;;5052252;28;20217;-91
2023/11/08 11:06:40;;;;;;;1.10;0.90;;;13.40;97.40;;;;;;5056325;28;20185;-91
2023/11/08 11:09:09;;;;;;;1.25;1.02;;;12.90;97.10;;;;;;5040831;28;20186;-91
2023/11/08 11:11:38;;;;;;;1.88;1.70;;;12.90;97.20;;;;;;5040985;28;20626;-92
2023/11/08 11:14:25;;;;;;;1.95;1.35;;;12.90;97.60;;;;;;5037995;28;20209;-92
2023/11/08 11:17:21;;;;;;;5.53;2.53;;;13.00;97.00;;;;;;5036709;28;20186;-92
2023/11/08 11:19:52;;;;;;;1.30;1.00;;;13.30;96.80;;;;;;5053477;28;20188;-92
2023/11/08 11:22:20;;;;;;;2.47;1.50;;;13.30;96.60;;;;;;5053134;28;20203;-92
2023/11/08 11:24:48;;;;;;;0.90;0.80;;;13.70;97.10;;;;;;5056114;28;20205;-93
2023/11/08 11:27:40;;;;;;;2.22;1.70;;;13.20;96.80;;;;;;5057098;28;20178;-91
2023/11/08 11:30:15;;;;;;;1.05;0.95;;;13.70;97.00;;;;;;5049534;28;20228;-91
2023/11/08 11:32:46;;;;;;;3.05;1.15;;;13.20;96.00;;;;;;5049814;28;20185;-91
2023/11/08 11:35:18;;;;;;;1.85;1.15;;;15.30;97.00;;;;;;5038542;28;20192;-91
2023/11/08 11:38:07;;;;;;;0.90;0.80;;;13.40;95.70;;;;;;5044105;28;20176;-92
2023/11/08 11:40:38;;;;;;;1.10;0.90;;;13.50;95.30;;;;;;5055656;28;20193;-92
2023/11/08 11:43:29;;;;;;;1.00;0.70;;;13.60;95.00;;;;;;5056728;28;20217;-91
2023/11/08 11:45:57;;;;;;;1.23;0.90;;;13.70;95.20;;;;;;5054571;28;20201;-92
2023/11/08 11:48:26;;;;;;;1.10;1.00;;;13.80;95.20;;;;;;5055916;28;20241;-92
2023/11/08 11:50:52;;;;;;;1.90;1.00;;;14.10;95.50;;;;;;5056300;28;20201;-92
2023/11/08 11:53:18;;;;;;;1.00;0.90;;;14.20;95.40;;;;;;5050400;28;20223;-92
2023/11/08 11:55:45;;;;;;;1.45;1.35;;;13.80;95.20;;;;;;5037901;28;20185;-91
2023/11/08 11:58:11;;;;;;;1.17;1.08;;;13.70;95.40;;;;;;5050507;28;20186;-91
2023/11/08 12:00:38;;;;;;;2.35;2.15;;;13.50;95.50;;;;;;5068813;28;20185;-91
2023/11/08 12:03:04;;;;;;;2.50;0.97;;;13.90;95.60;;;;;;5049234;28;20240;-92
2023/11/08 12:05:30;;;;;;;1.33;1.07;;;14.10;95.90;;;;;;5056123;28;20185;-91
2023/11/08 12:07:56;;;;;;;1.73;0.90;;;12.70;95.40;;;;;;5055695;28;20181;-89
2023/11/08 12:10:26;;;;;;;1.30;0.87;;;13.10;95.10;;;;;;5054652;28;20466;-90
2023/11/08 12:12:55;;;;;;;1.00;0.90;;;13.70;96.20;;;;;;5053118;28;20205;-89
2023/11/08 12:15:22;;;;;;;1.38;1.10;;;13.50;96.00;;;;;;5055216;28;20265;-89
2023/11/08 12:18:00;;;;;;;1.48;1.38;;;13.60;95.40;;;;;;5055460;28;20199;-90
2023/11/08 12:20:29;;;;;;;0.90;0.80;;;13.70;95.50;;;;;;5072603;28;20173;-90
2023/11/08 12:22:55;;;;;;;1.13;0.70;;;13.00;94.60;;;;;;5043763;28;20212;-90
2023/11/08 12:25:21;;;;;;;1.88;1.17;;;13.40;94.70;;;;;;5056336;28;20178;-90
2023/11/08 12:27:51;;;;;;;1.83;0.80;;;13.40;95.10;;;;;;5051372;28;20197;-93
2023/11/08 12:30:25;;;;;;;1.75;0.80;;;13.60;94.90;;;;;;5034835;28;20178;-91
2023/11/08 12:32:51;;;;;;;1.00;0.90;;;13.70;94.80;;;;;;5030416;28;20225;-92
2023/11/08 12:35:20;;;;;;;0.77;0.70;;;13.50;94.60;;;;;;5035243;28;20442;-92
2023/11/08 12:37:46;;;;;;;1.88;1.10;;;13.70;94.60;;;;;;5035277;28;20194;-92
2023/11/08 12:40:22;;;;;;;1.17;0.90;;;15.00;95.30;;;;;;5033170;28;20193;-92
2023/11/08 12:42:50;;;;;;;1.90;1.15;;;13.70;94.10;;;;;;5032029;28;20221;-92
2023/11/08 12:45:32;;;;;;;1.88;0.90;;;13.80;93.60;;;;;;5018567;28;20186;-91
2023/11/08 12:48:03;;;;;;;0.98;0.88;;;14.20;93.50;;;;;;5036032;28;20216;-91
2023/11/08 12:50:28;;;;;;;1.95;1.40;;;14.00;93.10;;;;;;5039324;28;20184;-92
2023/11/08 12:52:55;;;;;;;1.20;0.90;;;14.10;93.50;;;;;;5037163;28;20213;-92
2023/11/08 12:55:20;;;;;;;1.00;0.70;;;13.90;92.20;;;;;;5048528;28;20178;-84
2023/11/08 12:57:47;;;;;;;1.20;0.80;;;14.20;92.20;;;;;;5056490;28;20177;-84
2023/11/08 13:00:14;;;;;;;0.77;0.77;;;13.70;92.20;;;;;;5057329;28;20192;-84
2023/11/08 13:02:39;;;;;;;1.88;1.45;;;13.60;91.90;;;;;;5059526;28;20186;-84
2023/11/08 13:05:05;;;;;;;3.27;1.03;;;13.40;92.20;;;;;;5043172;28;20200;-86
2023/11/08 13:07:31;;;;;;;1.93;0.80;;;13.50;92.50;;;;;;5059080;28;20190;-85
2023/11/08 13:09:56;;;;;;;0.80;0.60;;;13.40;92.40;;;;;;5051400;28;20436;-86
2023/11/08 13:12:22;;;;;;;1.10;0.90;;;13.20;92.30;;;;;;5059716;28;20185;-87
2023/11/08 13:14:49;;;;;;;0.70;0.60;;;13.60;92.60;;;;;;5055825;28;20197;-91
2023/11/08 13:17:14;;;;;;;1.30;1.20;;;13.70;92.60;;;;;;5056705;28;20249;-90
2023/11/08 13:19:40;;;;;;;1.97;0.77;;;13.40;92.80;;;;;;5059165;28;20201;-90
2023/11/08 13:22:05;;;;;;;1.00;0.80;;;13.50;92.60;;;;;;5054851;28;20192;-90
2023/11/08 13:37:22;;;;;;;1.50;0.90;;;14.20;92.60;;;;;;5054741;28;20293;-90
2023/11/08 13:39:55;;;;;;;0.80;0.70;;;14.50;93.80;;;;;;5041566;28;20186;-91
2023/11/08 13:42:24;;;;;;;1.00;0.90;;;13.70;92.90;;;;;;5037508;28;20293;-92
2023/11/08 13:44:50;;;;;;;1.00;0.70;;;15.00;94.70;;;;;;5031350;28;20198;-91
2023/11/08 13:47:19;;;;;;;1.37;0.87;;;;;;;;;;5017592;28;20186;-90
2023/11/08 13:49:50;;;;;;;0.95;0.80;;;13.20;92.60;;;;;;5000317;28;20203;-90
2023/11/08 13:52:17;;;;;;;2.35;0.90;;;15.10;95.70;;;;;;5015911;28;20167;-88
2023/11/08 13:55:04;;;;;;;2.88;1.40;;;13.10;93.00;;;;;;5013844;28;20293;-90
2023/11/08 13:57:49;;;;;;;1.15;1.05;;;13.30;93.60;;;;;;5020321;28;20296;-90
2023/11/08 14:00:15;;;;;;;0.80;0.70;;;13.70;94.30;;;;;;4990534;28;20190;-90
2023/11/08 14:05:13;;;;;;;1.27;0.88;;;12.80;92.30;;;;;;5035269;28;20336;-91
2023/11/08 14:07:39;;;;;;;1.10;0.90;;;12.90;92.30;;;;;;5034140;28;20183;-91
2023/11/08 14:10:05;;;;;;;1.57;0.80;;;;;;;;;;5037192;28;20273;-89
2023/11/08 14:12:33;;;;;;;1.92;1.42;;;13.60;92.50;;;;;;5046314;28;20178;-90
2023/11/08 14:15:01;;;;;;;1.10;0.80;;;13.10;92.50;;;;;;5021538;28;20225;-89
2023/11/08 14:17:31;;;;;;;1.90;1.40;;;14.10;94.60;;;;;;5037169;28;20197;-90
2023/11/08 14:20:00;;;;;;;0.95;0.85;;;15.00;94.50;;;;;;5015648;28;20197;-89
2023/11/08 14:22:27;;;;;;;1.98;1.23;;;14.80;94.50;;;;;;5036656;28;20248;-90
2023/11/08 14:24:53;;;;;;;1.30;0.80;;;13.10;93.30;;;;;;5040511;28;20742;-90
2023/11/08 14:27:21;;;;;;;1.00;0.80;;;14.90;94.80;;;;;;5042441;28;20265;-89
2023/11/08 14:29:52;;;;;;;2.78;1.10;;;14.20;94.20;;;;;;5067218;28;20193;-89
2023/11/08 14:32:18;;;;;;;1.45;0.80;;;15.10;96.10;;;;;;5055762;28;20249;-89
2023/11/08 14:34:44;;;;;;;1.33;1.02;;;15.50;94.50;;;;;;5053565;28;20217;-89
2023/11/08 14:37:09;;;;;;;3.97;1.93;;;13.00;93.20;;;;;;5049917;28;20197;-88
2023/11/08 14:39:36;;;;;;;1.40;1.10;;;13.30;93.30;;;;;;5048595;28;20249;-90